Time;durP1;ratioP1;P1;durP2;ratioP2;P2;SDS_P1;SDS_P2;PMS_P1;PMS_P2;Temp;Humidity;BMP_temperature;BMP_pressure;BME280_temperature;BME280_humidity;BME280_pressure;Samples;Min_cycle;Max_cycle;Signal;HPM_P1;HPM_P2
2023/10/27 00:00:41;;;;;;;13.63;4.30;;;17.20;99.90;;;;;;4918657;29;20024;-83
2023/10/27 00:03:11;;;;;;;13.68;3.80;;;17.20;99.90;;;;;;4899612;29;20055;-83
2023/10/27 00:05:38;;;;;;;17.27;4.55;;;17.30;99.90;;;;;;4884358;29;20410;-83
2023/10/27 00:08:04;;;;;;;13.07;4.32;;;17.40;99.90;;;;;;4868676;29;20032;-83
2023/10/27 00:10:31;;;;;;;12.35;3.88;;;17.40;99.90;;;;;;4883869;29;20025;-82
2023/10/27 00:12:58;;;;;;;10.20;4.13;;;17.30;99.90;;;;;;4907433;29;20113;-84
2023/10/27 00:15:27;;;;;;;8.02;3.58;;;17.20;99.90;;;;;;4902545;29;20025;-83
2023/10/27 00:17:56;;;;;;;8.75;4.13;;;17.10;99.90;;;;;;4902673;29;20032;-84
2023/10/27 00:20:24;;;;;;;8.25;4.00;;;17.10;99.90;;;;;;4902489;29;20039;-83
2023/10/27 00:22:51;;;;;;;8.02;4.35;;;17.00;99.90;;;;;;4898976;29;20042;-83
2023/10/27 00:25:17;;;;;;;10.18;3.97;;;17.00;99.90;;;;;;4868244;29;20368;-84
2023/10/27 00:27:44;;;;;;;11.57;4.93;;;17.00;99.90;;;;;;4901084;29;20036;-84
2023/10/27 00:30:11;;;;;;;10.05;4.20;;;16.90;99.90;;;;;;4902413;29;20028;-83
2023/10/27 00:32:38;;;;;;;11.25;4.53;;;16.90;99.90;;;;;;4918190;29;20096;-83
2023/10/27 00:35:05;;;;;;;11.57;4.35;;;16.90;99.90;;;;;;4902291;29;20028;-83
2023/10/27 00:37:37;;;;;;;9.77;4.20;;;16.80;99.90;;;;;;4902120;29;20071;-83
2023/10/27 00:40:04;;;;;;;8.95;4.57;;;16.70;99.90;;;;;;4901731;29;20028;-83
2023/10/27 00:42:31;;;;;;;8.95;4.40;;;16.70;99.90;;;;;;4886331;29;20104;-82
2023/10/27 00:44:57;;;;;;;10.25;4.60;;;16.70;99.90;;;;;;4902283;29;20680;-83
2023/10/27 00:47:28;;;;;;;12.27;4.82;;;16.60;99.90;;;;;;4902601;29;20059;-83
2023/10/27 00:49:55;;;;;;;11.23;4.60;;;16.60;99.90;;;;;;4902114;29;20034;-83
2023/10/27 00:52:27;;;;;;;11.45;4.72;;;16.60;99.90;;;;;;4884812;29;20039;-83
2023/10/27 00:54:54;;;;;;;7.03;4.97;;;16.60;99.90;;;;;;4898852;29;20039;-83
2023/10/27 00:57:25;;;;;;;15.85;4.60;;;16.60;99.90;;;;;;4898774;29;20040;-83
2023/10/27 00:59:52;;;;;;;14.50;4.50;;;16.60;99.90;;;;;;4898692;29;20035;-83
2023/10/27 01:02:21;;;;;;;9.98;4.40;;;16.60;99.90;;;;;;4899447;29;20032;-83
2023/10/27 01:04:48;;;;;;;9.02;4.35;;;16.60;99.90;;;;;;4901841;29;20036;-83
2023/10/27 01:07:16;;;;;;;13.95;4.82;;;16.50;99.90;;;;;;4901813;29;20464;-83
2023/10/27 01:09:43;;;;;;;14.85;4.68;;;16.50;99.90;;;;;;4917740;29;20095;-84
2023/10/27 01:12:15;;;;;;;13.98;4.63;;;16.40;99.90;;;;;;4901833;29;20043;-84
2023/10/27 01:14:42;;;;;;;13.02;5.10;;;16.40;99.90;;;;;;4887369;29;20389;-83
2023/10/27 01:17:08;;;;;;;13.68;4.53;;;16.40;99.90;;;;;;4901531;29;20028;-83
2023/10/27 01:19:38;;;;;;;17.05;4.70;;;16.40;99.90;;;;;;4917360;29;20099;-83
2023/10/27 01:22:05;;;;;;;10.88;4.43;;;16.40;99.90;;;;;;4894853;29;20136;-83
2023/10/27 01:24:32;;;;;;;13.23;5.15;;;16.40;99.90;;;;;;4895262;29;20436;-83
2023/10/27 01:27:00;;;;;;;15.70;4.65;;;16.30;99.90;;;;;;4879317;29;20031;-83
2023/10/27 01:29:28;;;;;;;9.07;4.40;;;16.30;99.90;;;;;;4864205;29;20025;-83
2023/10/27 01:31:55;;;;;;;9.57;4.28;;;16.30;99.90;;;;;;4895024;29;20399;-83
2023/10/27 01:34:22;;;;;;;11.18;5.07;;;16.30;99.90;;;;;;4892531;29;20044;-83
2023/10/27 01:36:51;;;;;;;8.35;4.35;;;16.30;99.90;;;;;;4879280;29;20033;-84
2023/10/27 01:39:18;;;;;;;8.18;4.15;;;16.20;99.90;;;;;;4879069;29;20517;-83
2023/10/27 01:41:45;;;;;;;12.27;4.65;;;16.30;99.90;;;;;;4879327;29;20077;-83
2023/10/27 01:44:11;;;;;;;14.90;4.93;;;16.20;99.90;;;;;;4880343;29;20037;-83
2023/10/27 01:46:38;;;;;;;7.30;4.53;;;16.20;99.90;;;;;;4863845;29;20487;-83
2023/10/27 01:49:07;;;;;;;12.35;4.53;;;16.10;99.90;;;;;;4879210;29;20045;-83
2023/10/27 01:51:37;;;;;;;18.42;4.80;;;16.00;99.90;;;;;;4878871;29;20029;-84
2023/10/27 01:54:04;;;;;;;13.00;4.93;;;16.00;99.90;;;;;;4880131;29;20032;-83
2023/10/27 01:56:33;;;;;;;11.10;4.40;;;16.00;99.90;;;;;;4878907;29;20128;-83
2023/10/27 01:59:00;;;;;;;10.38;4.70;;;16.00;99.90;;;;;;4894532;29;20499;-83
2023/10/27 02:01:27;;;;;;;15.45;4.88;;;16.10;99.90;;;;;;4878729;29;20036;-83
2023/10/27 02:03:53;;;;;;;11.93;4.68;;;;;;;;;;4879391;29;20033;-83
2023/10/27 02:06:24;;;;;;;10.15;4.88;;;16.10;99.90;;;;;;4894427;29;20025;-83
2023/10/27 02:08:51;;;;;;;11.07;5.00;;;16.00;99.90;;;;;;4863346;29;20535;-82
2023/10/27 02:11:20;;;;;;;14.38;4.60;;;16.00;99.90;;;;;;4878713;29;20032;-83
2023/10/27 02:13:46;;;;;;;12.57;5.00;;;16.00;99.90;;;;;;4886939;29;20685;-83
2023/10/27 02:16:13;;;;;;;17.98;5.82;;;15.90;99.90;;;;;;4873422;29;20029;-83
2023/10/27 02:18:39;;;;;;;10.38;5.90;;;15.90;99.90;;;;;;4877651;29;20444;-83
2023/10/27 02:21:06;;;;;;;10.52;5.70;;;15.80;99.90;;;;;;4863613;29;20440;-83
2023/10/27 02:23:33;;;;;;;16.48;5.90;;;15.80;99.90;;;;;;4900410;29;20044;-83
2023/10/27 02:25:59;;;;;;;10.70;5.32;;;15.80;99.90;;;;;;4916249;29;20391;-83
2023/10/27 02:28:26;;;;;;;16.05;5.75;;;15.70;99.90;;;;;;4890752;29;20063;-83
2023/10/27 02:30:52;;;;;;;13.40;5.95;;;15.70;99.90;;;;;;4884608;29;20056;-83
2023/10/27 02:33:19;;;;;;;15.98;6.05;;;15.70;99.90;;;;;;4900193;29;20118;-82
2023/10/27 02:35:45;;;;;;;15.98;6.18;;;15.70;99.90;;;;;;4916118;29;20035;-83
2023/10/27 02:38:12;;;;;;;23.58;7.60;;;15.70;99.90;;;;;;4917116;29;20084;-83
2023/10/27 02:40:39;;;;;;;15.82;6.88;;;15.70;99.90;;;;;;4916984;29;20095;-82
2023/10/27 02:43:06;;;;;;;16.48;6.40;;;15.70;99.90;;;;;;4896764;29;20068;-83
2023/10/27 02:45:33;;;;;;;16.35;5.97;;;15.60;99.90;;;;;;4896961;29;20029;-83
2023/10/27 02:48:00;;;;;;;19.23;6.32;;;15.60;99.90;;;;;;4897137;29;20044;-83
2023/10/27 02:50:26;;;;;;;12.93;6.45;;;15.60;99.90;;;;;;4900082;29;20039;-83
2023/10/27 02:52:53;;;;;;;12.88;6.32;;;15.50;99.90;;;;;;4899875;29;20111;-83
2023/10/27 02:55:19;;;;;;;16.13;6.10;;;15.50;99.90;;;;;;4915817;29;20039;-83
2023/10/27 02:57:46;;;;;;;10.82;6.13;;;15.50;99.90;;;;;;4916003;29;20036;-82
2023/10/27 03:00:12;;;;;;;15.43;5.93;;;;;;;;;;4900134;29;20020;-83
2023/10/27 03:02:39;;;;;;;10.43;5.93;;;;;;;;;;4915724;29;20115;-83
2023/10/27 03:05:06;;;;;;;19.73;6.05;;;;;;;;;;4884582;29;20109;-83
2023/10/27 03:07:33;;;;;;;13.73;5.20;;;15.40;99.90;;;;;;4900179;29;20043;-83
2023/10/27 03:09:59;;;;;;;13.25;5.85;;;;;;;;;;4899919;29;20020;-83
2023/10/27 03:12:30;;;;;;;16.08;5.63;;;;;;;;;;4899978;29;20064;-83
2023/10/27 03:14:56;;;;;;;16.05;5.55;;;;;;;;;;4881479;29;20033;-83
2023/10/27 03:17:24;;;;;;;14.57;6.10;;;15.40;99.90;;;;;;4900983;29;20020;-83
2023/10/27 03:19:51;;;;;;;12.48;5.38;;;15.50;99.90;;;;;;4919786;29;20095;-84
2023/10/27 03:22:17;;;;;;;12.10;5.38;;;15.50;99.90;;;;;;4890778;29;20173;-83
2023/10/27 03:24:45;;;;;;;11.98;4.97;;;15.40;99.90;;;;;;4881895;29;20037;-83
2023/10/27 03:27:15;;;;;;;11.77;5.28;;;;;;;;;;4881812;29;20052;-84
2023/10/27 03:29:42;;;;;;;14.63;5.18;;;15.50;99.90;;;;;;4882122;29;20037;-86
2023/10/27 03:32:08;;;;;;;12.45;5.00;;;15.50;99.90;;;;;;4881552;29;20029;-84
2023/10/27 03:34:35;;;;;;;8.43;5.15;;;15.50;99.90;;;;;;4881572;29;20033;-83
2023/10/27 03:37:02;;;;;;;19.05;5.25;;;15.60;99.90;;;;;;4881387;29;20021;-83
2023/10/27 03:39:29;;;;;;;11.90;4.88;;;15.60;99.90;;;;;;4881310;29;20124;-82
2023/10/27 03:41:56;;;;;;;9.35;4.65;;;15.60;99.90;;;;;;4882486;29;20032;-81
2023/10/27 03:44:23;;;;;;;14.30;4.55;;;;;;;;;;4865782;29;20558;-81
2023/10/27 03:46:49;;;;;;;10.57;4.38;;;;;;;;;;4896976;29;20099;-81
2023/10/27 03:49:16;;;;;;;13.35;4.70;;;;;;;;;;4896860;29;20033;-81
2023/10/27 03:51:43;;;;;;;6.65;5.22;;;;;;;;;;4880754;29;20032;-81
2023/10/27 03:54:10;;;;;;;16.20;5.20;;;;;;;;;;4896528;29;20093;-82
2023/10/27 03:56:36;;;;;;;10.82;4.45;;;;;;;;;;4896793;29;20025;-82
2023/10/27 03:59:03;;;;;;;9.43;4.53;;;;;;;;;;4896637;29;20116;-82
2023/10/27 04:01:30;;;;;;;15.27;4.65;;;;;;;;;;4880831;29;20025;-81
2023/10/27 04:03:56;;;;;;;11.10;4.63;;;;;;;;;;4876813;29;20519;-81
2023/10/27 04:06:23;;;;;;;15.55;4.25;;;;;;;;;;4880817;29;20032;-81
2023/10/27 04:08:50;;;;;;;8.10;3.53;;;;;;;;;;4880775;29;20124;-82
2023/10/27 04:11:16;;;;;;;8.07;3.55;;;;;;;;;;4880713;29;20443;-81
2023/10/27 04:13:43;;;;;;;8.60;3.20;;;17.10;99.90;;;;;;4881493;29;20037;-82
2023/10/27 04:16:09;;;;;;;9.30;3.10;;;;;;;;;;4880556;29;20059;-82
2023/10/27 04:18:36;;;;;;;11.43;3.65;;;17.60;99.90;;;;;;4895629;29;20033;-81
2023/10/27 04:21:03;;;;;;;12.43;3.60;;;;;;;;;;4880509;29;20510;-81
2023/10/27 04:23:30;;;;;;;12.93;3.70;;;;;;;;;;4899008;29;20048;-81
2023/10/27 04:25:59;;;;;;;13.45;3.50;;;;;;;;;;4899177;29;20029;-82
2023/10/27 04:28:26;;;;;;;15.75;3.65;;;;;;;;;;4914814;29;20036;-83
2023/10/27 04:30:55;;;;;;;13.55;3.20;;;18.20;99.90;;;;;;4899836;29;20033;-84
2023/10/27 04:33:22;;;;;;;8.18;3.25;;;;;;;;;;4916198;29;20088;-84
2023/10/27 04:35:52;;;;;;;8.85;3.22;;;;;;;;;;4887055;29;20561;-84
2023/10/27 04:38:20;;;;;;;8.32;3.60;;;;;;;;;;4886968;29;20505;-84
2023/10/27 04:40:48;;;;;;;13.43;3.78;;;;;;;;;;4886727;29;20020;-84
2023/10/27 04:43:15;;;;;;;9.60;3.72;;;;;;;;;;4886491;29;20072;-84
2023/10/27 04:45:42;;;;;;;6.20;3.60;;;;;;;;;;4902077;29;20063;-84
2023/10/27 04:48:12;;;;;;;8.60;4.22;;;;;;;;;;4902461;29;20123;-83
2023/10/27 04:50:39;;;;;;;13.95;4.80;;;;;;;;;;4917618;29;20033;-84
2023/10/27 04:53:09;;;;;;;19.88;4.43;;;;;;;;;;4898724;29;20025;-84
2023/10/27 04:55:36;;;;;;;12.18;4.20;;;18.10;99.90;;;;;;4915573;29;20052;-84
2023/10/27 04:58:02;;;;;;;8.05;4.50;;;18.20;99.90;;;;;;4918225;29;20028;-84
2023/10/27 05:00:29;;;;;;;8.95;4.30;;;18.20;99.90;;;;;;4902215;29;20024;-85
2023/10/27 05:02:57;;;;;;;10.18;4.20;;;18.30;99.90;;;;;;4917114;29;20521;-82
2023/10/27 05:05:24;;;;;;;9.68;4.00;;;;;;;;;;4901468;29;20028;-81
2023/10/27 05:07:51;;;;;;;5.38;3.75;;;;;;;;;;4901567;29;20038;-82
2023/10/27 05:10:18;;;;;;;10.55;3.97;;;;;;;;;;4901576;29;20210;-81
2023/10/27 05:12:44;;;;;;;8.43;3.80;;;18.50;99.90;;;;;;4918343;29;20197;-81
2023/10/27 05:15:11;;;;;;;11.48;3.90;;;;;;;;;;4901349;29;20478;-81
2023/10/27 05:17:38;;;;;;;9.00;4.03;;;;;;;;;;4900828;29;20032;-81
2023/10/27 05:20:05;;;;;;;8.50;3.72;;;;;;;;;;4917133;29;20028;-82
2023/10/27 05:22:32;;;;;;;13.00;3.95;;;;;;;;;;4886319;29;20044;-82
2023/10/27 05:25:01;;;;;;;5.90;4.00;;;;;;;;;;4879289;29;20037;-82
2023/10/27 05:27:28;;;;;;;8.25;3.88;;;;;;;;;;4880035;29;20021;-81
2023/10/27 05:29:55;;;;;;;11.20;4.10;;;;;;;;;;4880333;29;20031;-82
2023/10/27 05:32:22;;;;;;;8.63;3.80;;;;;;;;;;4880908;29;20029;-86
2023/10/27 05:34:49;;;;;;;7.47;3.75;;;;;;;;;;4894084;29;20096;-81
2023/10/27 05:37:15;;;;;;;10.50;4.45;;;;;;;;;;4879941;29;20077;-85
2023/10/27 05:39:42;;;;;;;15.55;5.38;;;;;;;;;;4878591;29;20029;-82
2023/10/27 05:42:09;;;;;;;13.57;4.75;;;;;;;;;;4879107;29;20048;-83
2023/10/27 05:44:36;;;;;;;12.45;3.83;;;;;;;;;;4878808;29;20080;-81
2023/10/27 05:47:03;;;;;;;6.45;3.97;;;;;;;;;;4894388;29;20029;-82
2023/10/27 05:49:30;;;;;;;7.68;4.57;;;;;;;;;;4879193;29;20395;-83
2023/10/27 05:51:58;;;;;;;10.15;5.03;;;;;;;;;;4863587;29;20448;-83
2023/10/27 05:54:25;;;;;;;13.25;4.70;;;;;;;;;;4879069;29;20029;-81
2023/10/27 05:56:52;;;;;;;10.20;5.05;;;;;;;;;;4863299;29;20021;-82
2023/10/27 05:59:22;;;;;;;8.48;4.78;;;;;;;;;;4878968;29;20052;-81
2023/10/27 06:01:49;;;;;;;12.27;5.22;;;;;;;;;;4878637;29;20063;-81
2023/10/27 06:04:16;;;;;;;8.88;4.90;;;;;;;;;;4878236;29;20399;-81
2023/10/27 06:06:43;;;;;;;15.15;6.05;;;;;;;;;;4871648;29;20033;-81
2023/10/27 06:09:09;;;;;;;10.00;5.60;;;;;;;;;;4879369;29;20025;-82
2023/10/27 06:11:37;;;;;;;9.00;7.00;;;;;;;;;;4893926;29;20053;-82
2023/10/27 06:14:03;;;;;;;9.15;8.07;;;;;;;;;;4879221;29;20150;-83
2023/10/27 06:16:30;;;;;;;13.32;11.27;;;21.60;99.90;;;;;;4863015;29;20021;-83
2023/10/27 06:18:56;;;;;;;19.60;13.73;;;;;;;;;;4879988;29;20076;-83
2023/10/27 06:21:23;;;;;;;17.17;15.43;;;;;;;;;;4862540;29;20507;-82
2023/10/27 06:23:49;;;;;;;19.35;17.50;;;;;;;;;;4867096;29;20570;-84
2023/10/27 06:26:16;;;;;;;20.80;18.60;;;;;;;;;;4893041;29;20040;-83
2023/10/27 06:28:46;;;;;;;22.65;20.45;;;;;;;;;;4878195;29;20399;-83
2023/10/27 06:31:13;;;;;;;22.80;20.90;;;;;;;;;;4862988;29;20192;-83
2023/10/27 06:33:39;;;;;;;24.67;22.15;;;;;;;;;;4866063;29;20419;-84
2023/10/27 06:36:06;;;;;;;25.13;22.73;;;;;;;;;;4878295;29;20499;-83
2023/10/27 06:38:33;;;;;;;24.95;22.48;;;;;;;;;;4877582;29;20360;-83
2023/10/27 06:41:00;;;;;;;27.05;24.42;;;23.20;99.90;;;;;;4875302;29;20402;-83
2023/10/27 06:43:28;;;;;;;29.63;26.55;;;;;;;;;;4874723;29;20036;-83
2023/10/27 06:45:57;;;;;;;27.25;24.77;;;;;;;;;;4860767;29;20025;-83
2023/10/27 06:48:24;;;;;;;26.70;24.17;;;;;;;;;;4860899;29;20086;-82
2023/10/27 06:50:51;;;;;;;27.17;24.25;;;;;;;;;;4877712;29;20449;-83
2023/10/27 06:53:18;;;;;;;23.20;21.00;;;;;;;;;;4877818;29;20033;-83
2023/10/27 06:55:46;;;;;;;23.48;19.25;;;;;;;;;;4893406;29;20379;-84
2023/10/27 06:58:13;;;;;;;21.58;17.52;;;;;;;;;;4877803;29;20033;-83
2023/10/27 07:00:40;;;;;;;19.15;16.38;;;;;;;;;;4893503;29;20034;-83
2023/10/27 07:03:06;;;;;;;17.23;15.60;;;;;;;;;;4876751;29;20072;-84
2023/10/27 07:05:33;;;;;;;21.35;15.40;;;;;;;;;;4873341;29;20166;-83
2023/10/27 07:08:00;;;;;;;18.30;16.40;;;;;;;;;;4846975;29;20187;-83
2023/10/27 07:10:30;;;;;;;21.45;18.10;;;22.60;99.90;;;;;;4862342;29;20085;-83
2023/10/27 07:12:57;;;;;;;22.02;19.70;;;;;;;;;;4872442;29;20138;-83
2023/10/27 07:15:24;;;;;;;23.95;21.75;;;;;;;;;;4877786;29;20025;-83
2023/10/27 07:17:51;;;;;;;26.45;23.67;;;24.30;99.90;;;;;;4879019;29;20025;-88
2023/10/27 07:20:18;;;;;;;26.35;23.70;;;24.30;99.90;;;;;;4877931;29;20056;-88
2023/10/27 07:22:44;;;;;;;25.33;22.90;;;24.30;99.90;;;;;;4885198;29;20104;-86
2023/10/27 07:25:11;;;;;;;23.67;21.50;;;;;;;;;;4896676;29;20040;-86
2023/10/27 07:27:38;;;;;;;22.80;20.55;;;;;;;;;;4896996;29;20033;-87
2023/10/27 07:30:05;;;;;;;22.85;20.50;;;;;;;;;;4897241;29;20033;-89
2023/10/27 07:32:31;;;;;;;21.77;19.90;;;24.30;99.90;;;;;;4882392;29;20075;-88
2023/10/27 07:34:58;;;;;;;22.98;20.13;;;24.30;99.90;;;;;;4881877;29;20088;-88
2023/10/27 07:37:25;;;;;;;21.17;19.20;;;24.50;99.90;;;;;;4897574;29;20043;-89
2023/10/27 07:39:51;;;;;;;21.40;19.33;;;24.60;99.90;;;;;;4897435;29;20031;-88
2023/10/27 07:42:18;;;;;;;22.38;19.50;;;24.70;99.90;;;;;;4897666;29;20438;-88
2023/10/27 07:44:44;;;;;;;21.73;19.90;;;25.20;99.90;;;;;;4907432;29;20030;-88
2023/10/27 07:47:11;;;;;;;24.02;20.90;;;25.40;99.90;;;;;;4880917;29;20378;-91
2023/10/27 07:49:38;;;;;;;24.05;20.85;;;25.30;99.90;;;;;;4881355;29;20021;-89
2023/10/27 07:52:08;;;;;;;22.45;20.75;;;25.50;99.90;;;;;;4927410;29;20028;-89
2023/10/27 07:54:37;;;;;;;23.23;21.13;;;25.70;99.90;;;;;;4900947;29;20036;-89
2023/10/27 07:57:14;;;;;;;22.55;20.85;;;25.40;99.90;;;;;;4893742;29;20026;-88
2023/10/27 07:59:43;;;;;;;23.42;21.05;;;25.40;99.90;;;;;;4863306;29;20047;-88
2023/10/27 08:02:10;;;;;;;23.67;21.23;;;25.60;99.90;;;;;;4881086;29;20057;-87
2023/10/27 08:04:37;;;;;;;23.23;21.38;;;25.60;99.90;;;;;;4891001;29;20103;-88
2023/10/27 08:07:06;;;;;;;23.55;21.48;;;25.40;99.90;;;;;;4881779;29;20052;-87
2023/10/27 08:09:36;;;;;;;24.02;21.85;;;25.30;99.90;;;;;;4881382;29;20088;-87
2023/10/27 08:12:06;;;;;;;24.30;22.08;;;25.30;99.90;;;;;;4881362;29;20029;-87
2023/10/27 08:14:36;;;;;;;23.98;21.67;;;25.40;99.90;;;;;;4897157;29;20044;-87
2023/10/27 08:17:02;;;;;;;23.73;21.55;;;25.70;99.90;;;;;;4897053;29;20029;-87
2023/10/27 08:19:28;;;;;;;23.25;20.73;;;26.00;99.90;;;;;;4896908;29;20037;-87
2023/10/27 08:21:55;;;;;;;23.63;21.35;;;26.20;99.90;;;;;;4868592;29;20041;-88
2023/10/27 08:24:21;;;;;;;23.13;21.00;;;26.00;99.90;;;;;;4884766;29;20037;-88
2023/10/27 08:26:47;;;;;;;23.60;21.42;;;25.70;99.90;;;;;;4900269;29;20028;-88
2023/10/27 08:29:14;;;;;;;24.05;21.95;;;25.40;99.90;;;;;;4900349;29;20107;-87
2023/10/27 08:31:40;;;;;;;25.10;22.60;;;25.30;99.90;;;;;;4894919;29;20027;-88
2023/10/27 08:34:11;;;;;;;24.30;21.90;;;25.20;99.90;;;;;;4884627;29;20060;-87
2023/10/27 08:36:38;;;;;;;23.67;21.85;;;25.20;99.90;;;;;;4884730;29;20029;-89
2023/10/27 08:39:06;;;;;;;24.73;22.23;;;25.30;99.90;;;;;;4884626;29;20028;-87
2023/10/27 08:41:36;;;;;;;23.88;22.17;;;25.30;99.90;;;;;;4884629;29;20097;-88
2023/10/27 08:44:03;;;;;;;23.85;21.73;;;25.30;99.90;;;;;;4884362;29;20044;-88
2023/10/27 08:46:31;;;;;;;24.77;22.30;;;25.40;99.90;;;;;;4884422;29;20036;-88
2023/10/27 08:48:57;;;;;;;24.17;22.20;;;25.50;99.90;;;;;;4884437;29;20059;-88
2023/10/27 08:51:24;;;;;;;25.30;23.00;;;25.30;99.90;;;;;;4884593;29;20025;-90
2023/10/27 08:53:51;;;;;;;24.75;22.60;;;25.10;99.90;;;;;;4890049;29;20024;-88
2023/10/27 08:56:18;;;;;;;24.58;22.40;;;25.10;99.90;;;;;;4903208;29;20031;-88
2023/10/27 08:58:50;;;;;;;25.33;22.77;;;24.90;99.90;;;;;;4902521;29;20040;-88
2023/10/27 09:01:17;;;;;;;25.08;22.80;;;24.80;99.90;;;;;;4902766;29;20130;-88
2023/10/27 09:04:07;;;;;;;26.05;22.95;;;24.80;99.90;;;;;;4902673;29;20036;-89
2023/10/27 09:06:38;;;;;;;24.98;22.33;;;24.60;99.90;;;;;;4903036;29;20028;-90
2023/10/27 09:09:06;;;;;;;26.92;22.17;;;24.50;99.90;;;;;;4902571;29;20036;-90
2023/10/27 09:11:52;;;;;;;25.30;22.83;;;24.60;99.90;;;;;;4888814;29;20043;-89
2023/10/27 09:14:33;;;;;;;26.70;23.65;;;24.70;99.90;;;;;;4921060;29;20033;-89
2023/10/27 09:17:08;;;;;;;25.67;22.83;;;24.70;99.90;;;;;;4905137;29;20043;-89
2023/10/27 09:19:35;;;;;;;23.75;21.65;;;24.70;99.90;;;;;;4883565;29;20064;-88
2023/10/27 09:22:13;;;;;;;24.35;21.90;;;24.80;99.90;;;;;;4883443;29;20044;-87
2023/10/27 09:24:40;;;;;;;23.85;21.63;;;24.70;99.90;;;;;;4902335;29;20032;-88
2023/10/27 09:27:06;;;;;;;24.65;22.08;;;24.70;99.90;;;;;;4887026;29;20060;-88
2023/10/27 09:29:51;;;;;;;24.27;21.77;;;24.70;99.90;;;;;;4902505;29;20095;-88
2023/10/27 09:32:26;;;;;;;28.10;21.85;;;24.70;99.90;;;;;;4902397;29;20055;-88
2023/10/27 09:35:09;;;;;;;24.38;22.05;;;24.90;99.90;;;;;;4902294;29;20032;-88
2023/10/27 09:37:42;;;;;;;24.85;22.33;;;24.90;99.90;;;;;;4918230;29;20043;-89
2023/10/27 09:40:11;;;;;;;26.35;21.92;;;24.90;99.90;;;;;;4902203;29;20036;-89
2023/10/27 09:42:39;;;;;;;26.33;22.77;;;24.90;99.90;;;;;;4885984;29;20375;-89
2023/10/27 09:45:13;;;;;;;24.30;21.70;;;25.10;99.90;;;;;;4871458;29;20028;-88
2023/10/27 09:47:49;;;;;;;23.85;21.35;;;25.00;99.90;;;;;;4867783;29;20040;-88
2023/10/27 09:50:21;;;;;;;23.63;21.17;;;25.00;99.90;;;;;;4882796;29;20403;-89
2023/10/27 09:52:50;;;;;;;24.40;21.92;;;25.00;99.90;;;;;;4883094;29;20039;-89
2023/10/27 09:55:19;;;;;;;23.17;20.67;;;25.00;99.90;;;;;;4881624;29;20024;-85
2023/10/27 09:57:46;;;;;;;23.10;20.98;;;24.70;99.90;;;;;;4900715;29;20083;-86
2023/10/27 10:00:33;;;;;;;31.00;22.42;;;24.50;99.90;;;;;;4900761;29;20024;-86
2023/10/27 10:03:02;;;;;;;24.25;21.80;;;24.50;99.90;;;;;;4900647;29;20044;-85
2023/10/27 10:05:49;;;;;;;23.33;21.23;;;24.50;99.90;;;;;;4899842;29;20430;-85
2023/10/27 10:08:19;;;;;;;27.77;22.60;;;24.50;99.90;;;;;;4900459;29;20442;-85
2023/10/27 10:10:45;;;;;;;22.95;21.00;;;24.60;99.90;;;;;;4885047;29;20028;-85
2023/10/27 10:13:13;;;;;;;24.70;22.20;;;24.70;99.90;;;;;;4900239;29;20072;-87
2023/10/27 10:15:46;;;;;;;25.02;22.65;;;24.80;99.90;;;;;;4897376;29;20126;-83
2023/10/27 10:18:21;;;;;;;24.00;21.48;;;24.90;99.90;;;;;;4897320;29;20037;-83
2023/10/27 10:20:48;;;;;;;26.20;21.88;;;24.90;99.90;;;;;;4898556;29;20024;-84
2023/10/27 10:23:18;;;;;;;23.98;21.55;;;25.00;99.90;;;;;;4881334;29;20403;-83
2023/10/27 10:25:56;;;;;;;24.05;21.73;;;24.90;99.90;;;;;;4896612;29;20488;-84
2023/10/27 10:28:33;;;;;;;27.65;21.92;;;24.90;99.90;;;;;;4893273;29;20390;-84
2023/10/27 10:31:16;;;;;;;27.67;22.38;;;24.90;99.90;;;;;;4884811;29;20062;-84
2023/10/27 10:33:48;;;;;;;25.05;22.02;;;24.90;99.90;;;;;;4896710;29;20036;-83
2023/10/27 10:36:25;;;;;;;25.35;21.70;;;24.60;99.90;;;;;;4909463;29;20055;-84
2023/10/27 10:39:10;;;;;;;25.58;22.50;;;24.50;99.90;;;;;;4914550;29;20036;-84
2023/10/27 10:41:55;;;;;;;26.42;22.05;;;24.50;99.90;;;;;;4896579;29;20041;-84
2023/10/27 10:44:22;;;;;;;23.42;21.42;;;24.50;99.90;;;;;;4899603;29;20044;-84
2023/10/27 10:46:49;;;;;;;23.58;21.48;;;24.50;99.90;;;;;;4916786;29;20048;-83
2023/10/27 10:49:24;;;;;;;24.48;21.73;;;24.70;99.90;;;;;;4899968;29;20127;-82
2023/10/27 10:52:02;;;;;;;23.40;21.50;;;24.80;99.90;;;;;;4916942;29;20040;-83
2023/10/27 10:54:31;;;;;;;24.50;22.02;;;24.80;99.90;;;;;;4915900;29;20032;-86
2023/10/27 10:57:07;;;;;;;24.20;21.85;;;24.90;99.90;;;;;;4885028;29;20020;-88
2023/10/27 10:59:36;;;;;;;24.48;21.98;;;25.10;99.90;;;;;;4900334;29;20114;-85
2023/10/27 11:02:04;;;;;;;23.92;21.48;;;25.30;99.90;;;;;;4884537;29;20401;-85
2023/10/27 11:04:33;;;;;;;23.75;21.35;;;25.30;99.90;;;;;;4900363;29;20195;-86
2023/10/27 11:07:02;;;;;;;22.38;20.60;;;25.40;99.90;;;;;;4884900;29;20020;-88
2023/10/27 11:09:31;;;;;;;23.65;21.45;;;25.40;99.90;;;;;;4900315;29;20046;-86
2023/10/27 11:11:58;;;;;;;24.38;21.90;;;25.40;99.90;;;;;;4900222;29;20035;-85
2023/10/27 11:14:25;;;;;;;24.23;21.65;;;25.50;99.90;;;;;;4900028;29;20052;-88
2023/10/27 11:17:11;;;;;;;23.60;21.70;;;25.50;99.90;;;;;;4884701;29;20427;-84
2023/10/27 11:19:54;;;;;;;23.50;21.30;;;25.50;99.90;;;;;;4915808;29;20067;-88
2023/10/27 11:22:27;;;;;;;23.42;21.08;;;25.40;99.90;;;;;;4888991;29;20406;-87
2023/10/27 11:24:54;;;;;;;24.25;21.83;;;25.50;99.90;;;;;;4881934;29;20037;-87
2023/10/27 11:27:27;;;;;;;24.13;21.85;;;25.60;99.90;;;;;;4875321;29;20400;-86
2023/10/27 11:30:01;;;;;;;23.10;21.23;;;25.60;99.90;;;;;;4860620;29;20395;-86
2023/10/27 11:32:27;;;;;;;;;;;25.60;99.90;;;;;;4859789;29;20061;-85
2023/10/27 11:34:57;;;;;;;24.60;22.00;;;25.60;99.90;;;;;;4870557;29;19919;-86
2023/10/27 11:37:29;;;;;;;24.67;22.33;;;25.70;99.90;;;;;;4894850;29;20104;-87
2023/10/27 11:39:57;;;;;;;24.88;22.70;;;25.70;99.90;;;;;;4881885;29;20391;-87
2023/10/27 11:42:24;;;;;;;24.25;22.02;;;25.80;99.90;;;;;;4882133;29;20116;-86
2023/10/27 11:44:51;;;;;;;25.35;22.67;;;26.00;99.90;;;;;;4870604;29;20033;-84
2023/10/27 11:47:20;;;;;;;24.30;22.50;;;26.00;99.90;;;;;;4879087;29;20077;-87
2023/10/27 11:49:46;;;;;;;25.60;23.38;;;25.70;99.90;;;;;;4863185;29;20396;-86
2023/10/27 11:52:14;;;;;;;26.10;23.90;;;25.90;99.90;;;;;;4862807;29;20036;-85
2023/10/27 11:54:41;;;;;;;26.00;23.83;;;25.90;99.90;;;;;;4873288;29;20107;-85
2023/10/27 11:57:12;;;;;;;25.00;23.25;;;26.00;99.90;;;;;;4903781;29;20033;-84
2023/10/27 11:59:47;;;;;;;25.42;23.40;;;26.10;99.90;;;;;;4901244;29;20053;-84
2023/10/27 12:02:20;;;;;;;25.30;22.98;;;26.00;99.90;;;;;;4883760;29;20444;-84
2023/10/27 12:04:47;;;;;;;25.52;23.02;;;25.90;99.90;;;;;;4878172;29;20040;-88
2023/10/27 12:07:17;;;;;;;25.20;23.25;;;25.60;99.90;;;;;;4878896;29;20395;-86
2023/10/27 12:09:44;;;;;;;25.13;22.67;;;25.40;99.90;;;;;;4853425;29;20021;-89
2023/10/27 12:12:10;;;;;;;26.42;23.80;;;25.50;99.90;;;;;;4896613;29;20033;-86
2023/10/27 12:14:37;;;;;;;24.92;22.80;;;25.50;99.90;;;;;;4890794;29;20048;-87
2023/10/27 12:17:06;;;;;;;24.13;22.30;;;25.50;99.90;;;;;;4881225;29;20033;-86
2023/10/27 12:19:32;;;;;;;24.17;22.10;;;25.60;99.90;;;;;;4881166;29;20049;-86
2023/10/27 12:21:59;;;;;;;24.30;22.20;;;25.70;99.90;;;;;;4871767;29;20139;-86
2023/10/27 12:24:25;;;;;;;24.42;22.27;;;25.70;99.90;;;;;;4892130;29;20037;-85
2023/10/27 12:26:55;;;;;;;24.25;21.95;;;25.70;99.90;;;;;;4880535;29;20032;-85
2023/10/27 12:29:26;;;;;;;25.00;22.63;;;25.60;99.90;;;;;;4882285;29;20029;-86
2023/10/27 12:31:56;;;;;;;23.77;21.75;;;25.40;99.90;;;;;;4881138;29;20173;-86
2023/10/27 12:34:23;;;;;;;23.95;22.05;;;25.20;99.90;;;;;;4881005;29;20033;-88
2023/10/27 12:36:49;;;;;;;24.35;22.45;;;25.20;99.90;;;;;;4881608;29;20041;-87
2023/10/27 12:39:15;;;;;;;24.67;22.83;;;25.40;99.90;;;;;;4881009;29;20025;-87
2023/10/27 12:41:42;;;;;;;26.23;23.92;;;25.60;99.90;;;;;;4896674;29;20025;-87
2023/10/27 12:44:10;;;;;;;25.80;23.60;;;25.80;99.90;;;;;;4885426;29;20044;-87
2023/10/27 12:46:36;;;;;;;26.63;24.40;;;25.90;99.90;;;;;;4899302;29;20028;-85
2023/10/27 12:49:03;;;;;;;25.60;23.50;;;26.00;99.90;;;;;;4899166;29;20032;-89
2023/10/27 12:51:30;;;;;;;26.25;23.90;;;26.00;99.90;;;;;;4899824;29;20033;-90
2023/10/27 12:53:57;;;;;;;25.77;23.70;;;26.00;99.90;;;;;;4896343;29;20021;-87
2023/10/27 12:56:23;;;;;;;25.58;23.58;;;25.80;99.90;;;;;;4881256;29;20041;-90
2023/10/27 12:58:50;;;;;;;25.92;23.70;;;25.90;99.90;;;;;;4897670;29;20096;-93
2023/10/27 13:01:17;;;;;;;26.15;23.48;;;25.90;99.90;;;;;;4900730;29;20028;-87
2023/10/27 13:03:44;;;;;;;24.35;22.63;;;25.90;99.90;;;;;;4899908;29;20092;-91
2023/10/27 13:06:14;;;;;;;24.92;22.90;;;25.70;99.90;;;;;;4900125;29;20032;-89